Sea Prospect — 5BGQ3 — position and weather

sailwx.info

Track history (hours):
 
Tides and Currents Weather Stations Pressure Air Temp Water Temp Dewpoint Dewpoint Depression Visibility Wind Speed Wind Dir Waves Ship Positions

Sea Prospect

Last reported at 2018-Jul-22 15:30 UTC. Time now 2018-Jul-22 17:56 UTC.
Position N 35°60' W 005°11'.

Length 106 m; draft 8.1 m.

Type: Ship. MMSI: 209179000.

Date/timePositionNaut miles runAvg speedWind from/ knotsBaromVisibWave heightAir tempDewpointWater temp
2018-Jul-22 15:30N 35°60' W 005°11'714.0
2018-Jul-22 15:01N 35°59' W 005°20'815.4
2018-Jul-22 14:30N 35°57' W 005°29'24510.4
2018-Jul-21 15:02N 38°01' W 009°54'111.9
2018-Jul-21 14:56N 38°02' W 009°54'  
2018-Jul-18 07:24N 50°38' E 000°33'3611.4
2018-Jul-18 04:12N 51°00' E 001°19'2 9.1
2018-Jul-18 04:00N 51°01' E 001°21'4 8.9
2018-Jul-18 03:31N 51°05' E 001°26'5 8.9
2018-Jul-18 02:59N 51°07' E 001°32'5 9.4
2018-Jul-18 02:31N 51°10' E 001°38'510.2
2018-Jul-18 02:00N 51°13' E 001°44'611.5
2018-Jul-18 01:31N 51°18' E 001°49'612.9
2018-Jul-18 01:00N 51°24' E 001°53'1713.8
2018-Jul-17 23:46N 51°37' E 002°10'414.0
2018-Jul-17 23:29N 51°40' E 002°14'713.7
2018-Jul-17 22:59N 51°45' E 002°21'43111.6
2018-Jul-16 09:44N 57°38' E 009°31'311.6
2018-Jul-16 09:29N 57°39' E 009°36'511.5
2018-Jul-16 09:00N 57°41' E 009°46'611.4
2018-Jul-16 08:30N 57°43' E 009°56'611.1
2018-Jul-16 08:00N 57°45' E 010°06'510.8
2018-Jul-16 07:30N 57°46' E 010°15'510.7
2018-Jul-16 07:00N 57°47' E 010°25'510.6
2018-Jul-16 06:30N 57°48' E 010°35'510.6
2018-Jul-16 06:00N 57°47' E 010°45'4 9.1
2018-Jul-16 05:30N 57°43' E 010°47'2 0.3
2018-Jul-15 21:32N 57°41' E 010°47'0 3.8
2018-Jul-15 21:30N 57°41' E 010°47'3 5.8
2018-Jul-15 21:00N 57°40' E 010°52'510.7
2018-Jul-15 20:30N 57°38' E 011°02'611.8
2018-Jul-15 20:00N 57°35' E 011°11'612.1
2018-Jul-15 19:30N 57°31' E 011°20'611.8
2018-Jul-15 19:00N 57°26' E 011°26'1012.1
2018-Jul-15 18:11N 57°17' E 011°33'13610.8
2018-Jul-15 05:35N 55°02' E 011°02'112.0
2018-Jul-15 05:30N 55°01' E 011°02'611.0
2018-Jul-15 05:00N 54°57' E 010°57'510.7
2018-Jul-15 04:30N 54°52' E 010°53'510.6
2018-Jul-15 04:00N 54°47' E 010°53'510.7
2018-Jul-15 03:30N 54°42' E 010°56'611.5
2018-Jul-15 03:00N 54°38' E 011°04'611.7
2018-Jul-15 02:30N 54°35' E 011°12'1411.8
2018-Jul-15 01:18N 54°29' E 011°34'311.4
2018-Jul-15 01:00N 54°28' E 011°40'9011.1
2018-Jul-14 16:54N 55°04' E 014°01'4211.6
2018-Jul-14 13:14N 55°34' E 014°55'512.0
2018-Jul-14 12:49N 55°36' E 015°03'412.0
2018-Jul-14 12:30N 55°38' E 015°09'611.8
2018-Jul-14 12:00N 55°41' E 015°18'611.7
2018-Jul-14 11:30N 55°44' E 015°27'611.6
2018-Jul-14 11:00N 55°47' E 015°36'611.8
2018-Jul-14 10:30N 55°50' E 015°45'612.0
2018-Jul-14 10:00N 55°53' E 015°54'612.0
2018-Jul-14 09:30N 55°56' E 016°03'612.0
2018-Jul-14 09:00N 55°59' E 016°12'612.2
2018-Jul-14 08:30N 56°02' E 016°22'612.3
2018-Jul-14 08:00N 56°05' E 016°31'612.2
2018-Jul-14 07:29N 56°09' E 016°41'611.7
2018-Jul-14 07:00N 56°14' E 016°45'2312.1
2018-Jul-14 05:09N 56°35' E 016°56'1412.2
2018-Jul-14 03:59N 56°49' E 017°04'33 5.4
2018-Jul-13 21:54N 57°16' E 016°29'0 0.4
2018-Jul-13 21:28N 57°16' E 016°29'0 0.0
2018-Jul-13 20:58N 57°16' E 016°29'0 0.0
2018-Jul-13 20:25N 57°16' E 016°29'0 0.0
2018-Jul-13 19:58N 57°16' E 016°29'0 0.0
2018-Jul-13 19:28N 57°16' E 016°29'0 0.0
2018-Jul-13 18:55N 57°16' E 016°29'0 0.0
2018-Jul-13 18:25N 57°16' E 016°29'0 0.0
2018-Jul-13 17:58N 57°16' E 016°29'0 0.0
2018-Jul-13 17:28N 57°16' E 016°29'0 0.0
2018-Jul-13 16:58N 57°16' E 016°29'0 0.0
2018-Jul-13 16:28N 57°16' E 016°29'0 0.0
2018-Jul-13 15:58N 57°16' E 016°29'0 0.0
2018-Jul-13 15:28N 57°16' E 016°29'0 0.0
2018-Jul-13 14:58N 57°16' E 016°29'0 0.0
2018-Jul-13 14:28N 57°16' E 016°29'0 0.0
2018-Jul-13 13:28N 57°16' E 016°29'0 0.0
2018-Jul-13 12:58N 57°16' E 016°29'0 0.0
2018-Jul-13 12:25N 57°16' E 016°29'0 0.0
2018-Jul-13 11:58N 57°16' E 016°29'0 0.0
2018-Jul-13 11:28N 57°16' E 016°29'0 0.0
2018-Jul-13 10:55N 57°16' E 016°29'0 0.0
2018-Jul-13 10:28N 57°16' E 016°29'0 0.0
2018-Jul-13 09:58N 57°16' E 016°29'0 0.0
2018-Jul-13 09:28N 57°16' E 016°29'0 0.0
2018-Jul-13 08:58N 57°16' E 016°29'0 0.0
2018-Jul-13 08:28N 57°16' E 016°29'0 0.0
2018-Jul-13 07:58N 57°16' E 016°29'0 0.0
2018-Jul-13 07:25N 57°16' E 016°29'0 0.0
2018-Jul-13 06:58N 57°16' E 016°29'0 0.0
2018-Jul-13 06:28N 57°16' E 016°29'0 0.0
2018-Jul-13 05:58N 57°16' E 016°29'0 0.0
2018-Jul-13 05:28N 57°16' E 016°29'0 0.0
2018-Jul-13 04:58N 57°16' E 016°29'0 0.0
2018-Jul-13 04:28N 57°16' E 016°29'0 0.0
2018-Jul-13 03:58N 57°16' E 016°29'0 0.0
2018-Jul-13 03:28N 57°16' E 016°29'0 0.0
2018-Jul-13 02:58N 57°16' E 016°29'0 0.0
2018-Jul-13 02:28N 57°16' E 016°29'0 0.0
2018-Jul-13 01:58N 57°16' E 016°29'0 0.0
2018-Jul-13 01:28N 57°16' E 016°29'0 0.0
2018-Jul-13 00:58N 57°16' E 016°29'0 0.0
2018-Jul-13 00:28N 57°16' E 016°29'0 0.0
2018-Jul-12 23:58N 57°16' E 016°29'0 0.0
2018-Jul-12 23:28N 57°16' E 016°29'0 0.0
2018-Jul-12 22:58N 57°16' E 016°29'0 0.0
2018-Jul-12 22:28N 57°16' E 016°29'0 0.0
2018-Jul-12 21:58N 57°16' E 016°29'0 0.0
2018-Jul-12 21:28N 57°16' E 016°29'0 0.0
2018-Jul-12 20:58N 57°16' E 016°29'0 0.0
2018-Jul-12 20:30N 57°16' E 016°29'  
Track history (hours):
 
Tides and Currents Weather Stations Pressure Air Temp Water Temp Dewpoint Dewpoint Depression Visibility Wind Speed Wind Dir Waves Ship Positions

Sea Prospect

Last reported at 2018-Jul-22 15:30 UTC. Time now 2018-Jul-22 17:56 UTC.
Position N 35°60' W 005°11'.

Length 106 m; draft 8.1 m.

Type: Ship. MMSI: 209179000.

Date/timePositionNaut miles runAvg speedWind from/ knotsBaromVisibWave heightAir tempDewpointWater temp
2018-Jul-22 15:30N 35°60' W 005°11'714.0
2018-Jul-22 15:01N 35°59' W 005°20'815.4
2018-Jul-22 14:30N 35°57' W 005°29'24510.4
2018-Jul-21 15:02N 38°01' W 009°54'111.9
2018-Jul-21 14:56N 38°02' W 009°54'  
2018-Jul-18 07:24N 50°38' E 000°33'3611.4
2018-Jul-18 04:12N 51°00' E 001°19'2 9.1
2018-Jul-18 04:00N 51°01' E 001°21'4 8.9
2018-Jul-18 03:31N 51°05' E 001°26'5 8.9
2018-Jul-18 02:59N 51°07' E 001°32'5 9.4
2018-Jul-18 02:31N 51°10' E 001°38'510.2
2018-Jul-18 02:00N 51°13' E 001°44'611.5
2018-Jul-18 01:31N 51°18' E 001°49'612.9
2018-Jul-18 01:00N 51°24' E 001°53'1713.8
2018-Jul-17 23:46N 51°37' E 002°10'414.0
2018-Jul-17 23:29N 51°40' E 002°14'713.7
2018-Jul-17 22:59N 51°45' E 002°21'43111.6
2018-Jul-16 09:44N 57°38' E 009°31'311.6
2018-Jul-16 09:29N 57°39' E 009°36'511.5
2018-Jul-16 09:00N 57°41' E 009°46'611.4
2018-Jul-16 08:30N 57°43' E 009°56'611.1
2018-Jul-16 08:00N 57°45' E 010°06'510.8
2018-Jul-16 07:30N 57°46' E 010°15'510.7
2018-Jul-16 07:00N 57°47' E 010°25'510.6
2018-Jul-16 06:30N 57°48' E 010°35'510.6
2018-Jul-16 06:00N 57°47' E 010°45'4 9.1
2018-Jul-16 05:30N 57°43' E 010°47'2 0.3
2018-Jul-15 21:32N 57°41' E 010°47'0 3.8
2018-Jul-15 21:30N 57°41' E 010°47'3 5.8
2018-Jul-15 21:00N 57°40' E 010°52'510.7
2018-Jul-15 20:30N 57°38' E 011°02'611.8
2018-Jul-15 20:00N 57°35' E 011°11'612.1
2018-Jul-15 19:30N 57°31' E 011°20'611.8
2018-Jul-15 19:00N 57°26' E 011°26'1012.1
2018-Jul-15 18:11N 57°17' E 011°33'13610.8
2018-Jul-15 05:35N 55°02' E 011°02'112.0
2018-Jul-15 05:30N 55°01' E 011°02'611.0
2018-Jul-15 05:00N 54°57' E 010°57'510.7
2018-Jul-15 04:30N 54°52' E 010°53'510.6
2018-Jul-15 04:00N 54°47' E 010°53'510.7
2018-Jul-15 03:30N 54°42' E 010°56'611.5
2018-Jul-15 03:00N 54°38' E 011°04'611.7
2018-Jul-15 02:30N 54°35' E 011°12'1411.8
2018-Jul-15 01:18N 54°29' E 011°34'311.4
2018-Jul-15 01:00N 54°28' E 011°40'9011.1
2018-Jul-14 16:54N 55°04' E 014°01'4211.6
2018-Jul-14 13:14N 55°34' E 014°55'512.0
2018-Jul-14 12:49N 55°36' E 015°03'412.0
2018-Jul-14 12:30N 55°38' E 015°09'611.8
2018-Jul-14 12:00N 55°41' E 015°18'611.7
2018-Jul-14 11:30N 55°44' E 015°27'611.6
2018-Jul-14 11:00N 55°47' E 015°36'611.8
2018-Jul-14 10:30N 55°50' E 015°45'612.0
2018-Jul-14 10:00N 55°53' E 015°54'612.0
2018-Jul-14 09:30N 55°56' E 016°03'612.0
2018-Jul-14 09:00N 55°59' E 016°12'612.2
2018-Jul-14 08:30N 56°02' E 016°22'612.3
2018-Jul-14 08:00N 56°05' E 016°31'612.2
2018-Jul-14 07:29N 56°09' E 016°41'611.7
2018-Jul-14 07:00N 56°14' E 016°45'2312.1
2018-Jul-14 05:09N 56°35' E 016°56'1412.2
2018-Jul-14 03:59N 56°49' E 017°04'33 5.4
2018-Jul-13 21:54N 57°16' E 016°29'0 0.4
2018-Jul-13 21:28N 57°16' E 016°29'0 0.0
2018-Jul-13 20:58N 57°16' E 016°29'0 0.0
2018-Jul-13 20:25N 57°16' E 016°29'0 0.0
2018-Jul-13 19:58N 57°16' E 016°29'0 0.0
2018-Jul-13 19:28N 57°16' E 016°29'0 0.0
2018-Jul-13 18:55N 57°16' E 016°29'0 0.0
2018-Jul-13 18:25N 57°16' E 016°29'0 0.0
2018-Jul-13 17:58N 57°16' E 016°29'0 0.0
2018-Jul-13 17:28N 57°16' E 016°29'0 0.0
2018-Jul-13 16:58N 57°16' E 016°29'0 0.0
2018-Jul-13 16:28N 57°16' E 016°29'0 0.0
2018-Jul-13 15:58N 57°16' E 016°29'0 0.0
2018-Jul-13 15:28N 57°16' E 016°29'0 0.0
2018-Jul-13 14:58N 57°16' E 016°29'0 0.0
2018-Jul-13 14:28N 57°16' E 016°29'0 0.0
2018-Jul-13 13:28N 57°16' E 016°29'0 0.0
2018-Jul-13 12:58N 57°16' E 016°29'0 0.0
2018-Jul-13 12:25N 57°16' E 016°29'0 0.0
2018-Jul-13 11:58N 57°16' E 016°29'0 0.0
2018-Jul-13 11:28N 57°16' E 016°29'0 0.0
2018-Jul-13 10:55N 57°16' E 016°29'0 0.0
2018-Jul-13 10:28N 57°16' E 016°29'0 0.0
2018-Jul-13 09:58N 57°16' E 016°29'0 0.0
2018-Jul-13 09:28N 57°16' E 016°29'0 0.0
2018-Jul-13 08:58N 57°16' E 016°29'0 0.0
2018-Jul-13 08:28N 57°16' E 016°29'0 0.0
2018-Jul-13 07:58N 57°16' E 016°29'0 0.0
2018-Jul-13 07:25N 57°16' E 016°29'0 0.0
2018-Jul-13 06:58N 57°16' E 016°29'0 0.0
2018-Jul-13 06:28N 57°16' E 016°29'0 0.0
2018-Jul-13 05:58N 57°16' E 016°29'0 0.0
2018-Jul-13 05:28N 57°16' E 016°29'0 0.0
2018-Jul-13 04:58N 57°16' E 016°29'0 0.0
2018-Jul-13 04:28N 57°16' E 016°29'0 0.0
2018-Jul-13 03:58N 57°16' E 016°29'0 0.0
2018-Jul-13 03:28N 57°16' E 016°29'0 0.0
2018-Jul-13 02:58N 57°16' E 016°29'0 0.0
2018-Jul-13 02:28N 57°16' E 016°29'0 0.0
2018-Jul-13 01:58N 57°16' E 016°29'0 0.0
2018-Jul-13 01:28N 57°16' E 016°29'0 0.0
2018-Jul-13 00:58N 57°16' E 016°29'0 0.0
2018-Jul-13 00:28N 57°16' E 016°29'0 0.0
2018-Jul-12 23:58N 57°16' E 016°29'0 0.0
2018-Jul-12 23:28N 57°16' E 016°29'0 0.0
2018-Jul-12 22:58N 57°16' E 016°29'0 0.0
2018-Jul-12 22:28N 57°16' E 016°29'0 0.0
2018-Jul-12 21:58N 57°16' E 016°29'0 0.0
2018-Jul-12 21:28N 57°16' E 016°29'0 0.0
2018-Jul-12 20:58N 57°16' E 016°29'0 0.0
2018-Jul-12 20:30N 57°16' E 016°29'  

Dump ship's entire track history